createdAt,value
2019-05-16T00:02:43.272Z,10.00
2019-05-16T00:07:34.185Z,9.90
2019-05-16T00:12:25.109Z,10.80
2019-05-16T00:17:16.030Z,11.00
2019-05-16T00:22:08.692Z,10.60
2019-05-16T00:26:58.621Z,10.00
2019-05-16T00:31:49.522Z,10.00
2019-05-16T00:36:40.524Z,9.80
2019-05-16T00:41:31.423Z,9.60
2019-05-16T00:46:22.319Z,10.50
2019-05-16T00:51:13.202Z,10.80
2019-05-16T00:56:04.834Z,10.10
2019-05-16T01:00:56.474Z,9.80
2019-05-16T01:05:48.056Z,9.80
2019-05-16T03:17:45.577Z,9.70
2019-05-16T03:22:37.243Z,9.40
2019-05-16T03:27:30.630Z,9.40
2019-05-16T03:32:23.604Z,9.10
2019-05-16T03:37:14.241Z,8.90
2019-05-16T03:42:01.209Z,8.80
2019-05-16T03:46:52.011Z,9.00
2019-05-16T03:51:42.877Z,9.90
2019-05-16T03:56:33.801Z,9.90
2019-05-16T04:01:24.734Z,9.50
2019-05-16T04:06:15.640Z,9.20
2019-05-16T04:11:06.557Z,9.00
2019-05-16T04:15:57.484Z,8.80
2019-05-16T04:20:51.858Z,8.70
2019-05-16T04:25:41.066Z,10.00
2019-05-16T04:30:31.421Z,9.90
2019-05-16T04:35:21.972Z,9.80
2019-05-16T04:40:12.900Z,9.50
2019-05-16T04:45:04.780Z,9.20
2019-05-16T04:49:56.445Z,8.90
2019-05-16T04:54:47.369Z,8.80
2019-05-16T04:59:41.473Z,8.80
2019-05-16T05:04:30.542Z,9.70
2019-05-16T05:09:21.137Z,9.90
2019-05-16T05:14:11.869Z,9.80
2019-05-16T05:19:02.793Z,9.50
2019-05-16T05:23:53.748Z,9.30
2019-05-16T05:28:45.419Z,9.00
2019-05-16T05:33:36.333Z,8.90
2019-05-16T05:38:27.245Z,9.10
2019-05-16T05:43:18.156Z,10.10
2019-05-16T05:48:10.748Z,9.90
2019-05-16T05:53:01.534Z,9.80
2019-05-16T05:57:52.452Z,9.30
2019-05-16T06:02:44.229Z,9.20
2019-05-16T06:07:35.135Z,9.20
2019-05-16T06:12:26.052Z,9.10
2019-05-16T06:17:16.968Z,9.70
2019-05-16T06:22:10.126Z,10.40
2019-05-16T06:27:05.700Z,10.20
2019-05-16T06:31:56.627Z,9.90
2019-05-16T06:36:47.540Z,9.60
2019-05-16T06:41:39.744Z,9.40
2019-05-16T06:46:30.668Z,9.40
2019-05-16T06:51:21.084Z,9.40
2019-05-16T06:56:12.004Z,10.30
2019-05-16T07:01:03.800Z,10.50
2019-05-16T07:05:53.862Z,10.20
2019-05-16T07:10:44.785Z,10.00
2019-05-16T07:15:35.697Z,9.70
2019-05-16T07:20:26.608Z,9.60
2019-05-16T07:25:17.620Z,9.50
2019-05-16T07:30:10.616Z,10.00
2019-05-16T07:35:00.364Z,10.80
2019-05-16T07:39:51.178Z,10.70
2019-05-16T07:44:42.217Z,10.10
2019-05-16T07:49:33.136Z,10.10
2019-05-16T07:54:24.053Z,9.90
2019-05-16T07:59:14.975Z,9.70
2019-05-16T08:04:05.895Z,9.80
2019-05-16T08:08:56.808Z,10.70
2019-05-16T08:13:47.726Z,10.90
2019-05-16T08:18:44.741Z,10.60
2019-05-16T08:23:30.544Z,10.30
2019-05-16T08:28:21.874Z,10.10
2019-05-16T08:33:13.480Z,9.90
2019-05-16T08:38:02.609Z,9.80
2019-05-16T08:42:53.584Z,10.60
2019-05-16T08:47:44.497Z,11.10
2019-05-16T08:52:35.413Z,10.90
2019-05-16T08:57:28.114Z,10.60
2019-05-16T09:02:22.009Z,10.10
2019-05-16T09:07:12.392Z,10.10
2019-05-16T09:11:59.922Z,10.00
2019-05-16T09:16:50.840Z,10.40
2019-05-16T09:21:41.761Z,11.30
2019-05-16T09:26:32.748Z,11.20
2019-05-16T09:31:23.661Z,10.80
2019-05-16T09:36:17.170Z,10.50
2019-05-16T09:41:07.838Z,10.20
2019-05-16T09:46:03.511Z,10.20
2019-05-16T09:50:48.263Z,10.20
2019-05-16T09:55:39.185Z,11.20
2019-05-16T10:00:30.105Z,11.40
2019-05-16T10:05:21.066Z,11.10
2019-05-16T10:10:12.720Z,10.60
2019-05-16T10:15:03.630Z,10.60
2019-05-16T10:19:56.472Z,10.40
2019-05-16T10:24:46.799Z,10.40
2019-05-16T10:29:37.718Z,11.40
2019-05-16T10:34:28.840Z,11.30
2019-05-16T10:39:20.501Z,11.00
2019-05-16T10:44:11.418Z,11.00
2019-05-16T10:49:02.327Z,10.80
2019-05-16T10:54:05.796Z,10.60
2019-05-16T10:59:04.905Z,10.50
2019-05-16T11:03:35.164Z,11.30
2019-05-16T11:08:26.057Z,11.90
2019-05-16T11:13:20.125Z,11.70
2019-05-16T11:18:08.663Z,11.30
2019-05-16T11:22:59.585Z,11.30
2019-05-16T11:27:50.509Z,11.20
2019-05-16T11:32:41.429Z,11.20
2019-05-16T11:37:32.337Z,12.00
2019-05-16T11:42:23.244Z,12.30
2019-05-16T11:47:16.485Z,12.10
2019-05-16T11:52:07.333Z,11.80
2019-05-16T11:56:57.082Z,11.60
2019-05-16T12:01:47.613Z,11.50
2019-05-16T12:06:37.936Z,11.40
2019-05-16T12:11:29.597Z,12.70
2019-05-16T12:16:20.513Z,12.70
2019-05-16T12:21:11.434Z,12.50
2019-05-16T12:26:02.360Z,12.30
2019-05-16T12:30:53.289Z,12.10
2019-05-16T12:35:44.232Z,11.90
2019-05-16T12:40:37.404Z,11.90
2019-05-16T12:45:27.479Z,12.80
2019-05-16T12:50:18.088Z,12.90
2019-05-16T12:55:08.696Z,12.90
2019-05-16T12:59:59.612Z,12.70
2019-05-16T13:04:50.529Z,12.40
2019-05-16T13:09:41.448Z,12.30
2019-05-16T13:14:32.364Z,12.40
2019-05-16T13:19:23.309Z,13.40
2019-05-16T13:24:14.224Z,13.40
2019-05-16T13:29:07.245Z,13.10
2019-05-16T13:33:56.802Z,12.80
2019-05-16T13:38:48.214Z,12.50
2019-05-16T13:43:38.698Z,12.50
2019-05-16T13:48:29.614Z,13.10
2019-05-16T13:53:20.581Z,13.70
2019-05-16T13:58:11.501Z,13.50
2019-05-16T14:03:02.508Z,13.20
2019-05-16T14:07:53.416Z,12.90
2019-05-16T14:12:44.349Z,12.70
2019-05-16T14:17:37.000Z,12.70
2019-05-16T14:22:27.766Z,13.80
2019-05-16T14:27:17.897Z,13.70
2019-05-16T14:32:10.238Z,13.50
2019-05-16T14:36:59.765Z,13.10
2019-05-16T14:41:50.678Z,12.90
2019-05-16T14:46:41.610Z,12.80
2019-05-16T14:51:32.676Z,13.20
2019-05-16T14:56:23.501Z,13.90
2019-05-16T15:01:14.428Z,13.80
2019-05-16T15:06:08.066Z,13.40
2019-05-16T15:10:57.413Z,13.10
2019-05-16T15:15:47.986Z,13.00
2019-05-16T15:20:38.888Z,12.90
2019-05-16T15:25:29.813Z,13.90
2019-05-16T15:30:20.752Z,14.00
2019-05-16T15:35:11.666Z,13.60
2019-05-16T15:40:07.199Z,13.30
2019-05-16T15:44:57.274Z,12.90
2019-05-16T15:49:48.216Z,12.90
2019-05-16T15:54:39.885Z,14.10
2019-05-16T15:59:30.809Z,14.10
2019-05-16T16:04:21.754Z,13.90
2019-05-16T16:09:13.410Z,13.20
2019-05-16T16:14:06.794Z,13.20
2019-05-16T16:18:57.439Z,13.00
2019-05-16T16:23:47.489Z,13.10
2019-05-16T16:28:39.204Z,14.00
2019-05-16T16:33:30.348Z,14.00
2019-05-16T16:38:21.179Z,13.70
2019-05-16T16:43:12.093Z,13.30
2019-05-16T16:48:03.004Z,13.10
2019-05-16T16:52:56.428Z,12.90
2019-05-16T16:57:47.172Z,13.60
2019-05-16T17:02:37.315Z,14.10
2019-05-16T17:07:27.585Z,13.40
2019-05-16T17:12:19.249Z,13.10
2019-05-16T17:17:10.161Z,13.10
2019-05-16T17:22:13.657Z,12.90
2019-05-16T17:26:52.036Z,13.20
2019-05-16T17:31:42.999Z,14.00
2019-05-16T17:36:33.928Z,13.90
2019-05-16T17:46:46.654Z,13.10
2019-05-16T17:51:36.744Z,12.90
2019-05-16T17:56:27.014Z,13.60
2019-05-16T18:01:17.949Z,13.60
2019-05-16T18:06:08.868Z,13.80
2019-05-16T18:10:59.800Z,13.50
2019-05-16T18:15:50.716Z,13.10
2019-05-16T18:20:54.812Z,12.80
2019-05-16T18:25:33.337Z,12.90
2019-05-16T18:30:24.256Z,12.90
2019-05-16T18:35:16.800Z,13.80
2019-05-16T18:40:07.242Z,13.70
2019-05-16T18:44:57.077Z,13.30
2019-05-16T18:49:48.020Z,13.00
2019-05-16T18:54:38.941Z,12.70
2019-05-16T18:59:29.861Z,12.50
2019-05-16T19:09:39.601Z,13.70
2019-05-16T19:14:30.528Z,13.40
2019-05-16T19:19:21.440Z,13.00
2019-05-16T19:24:12.351Z,12.70
2019-05-16T19:29:03.259Z,12.50
2019-05-16T19:33:56.390Z,12.60
2019-05-16T19:38:46.613Z,13.50
2019-05-16T19:43:37.187Z,13.10
2019-05-16T19:48:27.765Z,13.10
2019-05-16T19:53:18.680Z,12.80
2019-05-16T19:58:17.422Z,12.30
2019-05-16T20:03:09.084Z,13.00
2019-05-16T20:08:00.006Z,13.00
2019-05-16T20:12:50.930Z,13.40
2019-05-16T20:17:52.091Z,13.20
2019-05-16T20:22:32.879Z,12.80
2019-05-16T20:27:23.813Z,12.50
2019-05-16T20:32:16.739Z,12.30
2019-05-16T20:37:06.084Z,12.30
2019-05-16T20:41:59.630Z,13.20
2019-05-16T20:46:49.698Z,13.30
2019-05-16T20:51:38.770Z,13.00
2019-05-16T20:56:29.708Z,12.60
2019-05-16T21:01:20.628Z,12.30
2019-05-16T21:06:11.543Z,12.20
2019-05-16T21:11:02.482Z,12.70
2019-05-16T21:15:53.405Z,13.30
2019-05-16T21:20:46.812Z,13.10
2019-05-16T21:25:37.102Z,12.70
2019-05-16T21:30:27.352Z,12.40
2019-05-16T21:35:17.212Z,12.20
2019-05-16T21:40:08.268Z,12.10
2019-05-16T21:44:59.825Z,13.00
2019-05-16T21:49:50.740Z,13.00
2019-05-16T21:54:41.665Z,12.70
2019-05-16T21:59:32.642Z,12.30
2019-05-16T22:04:24.311Z,11.80
2019-05-16T22:09:15.233Z,11.80
2019-05-16T22:14:06.545Z,12.10
2019-05-16T22:18:57.099Z,12.90
2019-05-16T22:23:48.026Z,12.80
2019-05-16T22:28:38.973Z,12.40
2019-05-16T22:33:30.645Z,11.80
2019-05-16T22:38:21.564Z,11.80
2019-05-16T22:43:12.480Z,11.60
2019-05-16T22:48:03.397Z,11.90
2019-05-16T22:52:56.811Z,12.60
2019-05-16T22:57:47.305Z,12.30
2019-05-16T23:02:36.796Z,11.80
2019-05-16T23:07:27.569Z,11.50
2019-05-16T23:12:18.896Z,11.00
2019-05-16T23:17:10.572Z,11.50
2019-05-16T23:22:01.515Z,11.50
2019-05-16T23:26:52.434Z,12.00
2019-05-16T23:31:43.416Z,11.80
2019-05-16T23:36:34.349Z,11.50
2019-05-16T23:41:27.205Z,11.20
2019-05-16T23:46:16.585Z,11.00
2019-05-16T23:51:08.030Z,11.60
2019-05-16T23:55:58.842Z,11.60
